sensor_id;sensor_type;location;lat;lon;timestamp;P1;durP1;ratioP1;P2;durP2;ratioP2
52922;SDS011;38796;42.702;23.306;2022-12-29T07:06:26;10.45;;;5.28;;
52922;SDS011;38796;42.702;23.306;2022-12-29T07:08:24;30.70;;;4.88;;
52922;SDS011;38796;42.702;23.306;2022-12-29T07:10:23;7.30;;;3.65;;
52922;SDS011;38796;42.702;23.306;2022-12-29T07:12:21;7.50;;;3.17;;
52922;SDS011;38796;42.702;23.306;2022-12-29T07:14:19;6.05;;;4.30;;
52922;SDS011;38796;42.702;23.306;2022-12-29T07:16:18;9.10;;;4.93;;
52922;SDS011;38796;42.702;23.306;2022-12-29T07:18:16;14.93;;;5.65;;
52922;SDS011;38796;42.702;23.306;2022-12-29T07:20:15;8.95;;;5.00;;
52922;SDS011;38796;42.702;23.306;2022-12-29T07:22:23;4.25;;;2.78;;
52922;SDS011;38796;42.702;23.306;2022-12-29T07:24:21;5.75;;;3.70;;
52922;SDS011;38796;42.702;23.306;2022-12-29T07:26:22;16.17;;;7.75;;
52922;SDS011;38796;42.702;23.306;2022-12-29T07:28:20;11.57;;;5.32;;
52922;SDS011;38796;42.702;23.306;2022-12-29T07:30:18;18.98;;;8.75;;
52922;SDS011;38796;42.702;23.306;2022-12-29T07:32:17;92.50;;;33.38;;
52922;SDS011;38796;42.702;23.306;2022-12-29T07:34:16;45.53;;;18.40;;
52922;SDS011;38796;42.702;23.306;2022-12-29T07:36:14;27.02;;;10.65;;
52922;SDS011;38796;42.702;23.306;2022-12-29T07:38:14;11.93;;;5.22;;
52922;SDS011;38796;42.702;23.306;2022-12-29T07:40:13;7.70;;;4.07;;
52922;SDS011;38796;42.702;23.306;2022-12-29T07:42:11;6.53;;;3.45;;
52922;SDS011;38796;42.702;23.306;2022-12-29T07:44:12;9.48;;;4.07;;
52922;SDS011;38796;42.702;23.306;2022-12-29T07:46:24;4.93;;;3.60;;
52922;SDS011;38796;42.702;23.306;2022-12-29T07:48:43;32.28;;;4.13;;
52922;SDS011;38796;42.702;23.306;2022-12-29T07:50:41;9.18;;;4.68;;
52922;SDS011;38796;42.702;23.306;2022-12-29T07:52:39;18.40;;;7.78;;
52922;SDS011;38796;42.702;23.306;2022-12-29T07:54:38;15.77;;;6.35;;
52922;SDS011;38796;42.702;23.306;2022-12-29T07:56:37;13.55;;;5.55;;
52922;SDS011;38796;42.702;23.306;2022-12-29T07:58:35;11.70;;;6.10;;
52922;SDS011;38796;42.702;23.306;2022-12-29T08:00:33;6.88;;;3.97;;
52922;SDS011;38796;42.702;23.306;2022-12-29T08:02:32;8.93;;;4.57;;
52922;SDS011;38796;42.702;23.306;2022-12-29T08:04:30;7.03;;;3.25;;
52922;SDS011;38796;42.702;23.306;2022-12-29T08:06:28;9.32;;;4.75;;
52922;SDS011;38796;42.702;23.306;2022-12-29T08:08:27;12.32;;;5.30;;
52922;SDS011;38796;42.702;23.306;2022-12-29T08:10:26;13.27;;;5.35;;
52922;SDS011;38796;42.702;23.306;2022-12-29T08:12:30;11.93;;;3.38;;
52922;SDS011;38796;42.702;23.306;2022-12-29T08:14:28;7.60;;;3.78;;
52922;SDS011;38796;42.702;23.306;2022-12-29T08:16:27;6.43;;;3.33;;
52922;SDS011;38796;42.702;23.306;2022-12-29T08:18:25;6.93;;;3.13;;
52922;SDS011;38796;42.702;23.306;2022-12-29T08:20:23;4.05;;;3.38;;
52922;SDS011;38796;42.702;23.306;2022-12-29T08:22:22;7.82;;;2.65;;
52922;SDS011;38796;42.702;23.306;2022-12-29T08:24:20;7.55;;;4.88;;
52922;SDS011;38796;42.702;23.306;2022-12-29T08:26:21;7.57;;;3.15;;
52922;SDS011;38796;42.702;23.306;2022-12-29T08:28:19;6.40;;;3.22;;
52922;SDS011;38796;42.702;23.306;2022-12-29T08:30:17;4.10;;;3.28;;
52922;SDS011;38796;42.702;23.306;2022-12-29T08:32:16;4.88;;;3.28;;
52922;SDS011;38796;42.702;23.306;2022-12-29T08:34:14;8.13;;;4.25;;
52922;SDS011;38796;42.702;23.306;2022-12-29T08:36:12;4.40;;;3.22;;
52922;SDS011;38796;42.702;23.306;2022-12-29T08:38:11;5.70;;;3.25;;
52922;SDS011;38796;42.702;23.306;2022-12-29T08:40:10;5.68;;;2.47;;
52922;SDS011;38796;42.702;23.306;2022-12-29T08:42:10;8.40;;;3.35;;
52922;SDS011;38796;42.702;23.306;2022-12-29T08:44:11;9.90;;;4.72;;
52922;SDS011;38796;42.702;23.306;2022-12-29T08:46:09;4.72;;;2.97;;
52922;SDS011;38796;42.702;23.306;2022-12-29T08:48:08;6.80;;;3.63;;
52922;SDS011;38796;42.702;23.306;2022-12-29T08:50:06;15.75;;;4.38;;
52922;SDS011;38796;42.702;23.306;2022-12-29T08:52:05;7.22;;;4.03;;
52922;SDS011;38796;42.702;23.306;2022-12-29T08:54:03;5.97;;;3.08;;
52922;SDS011;38796;42.702;23.306;2022-12-29T08:56:01;9.35;;;3.47;;
52922;SDS011;38796;42.702;23.306;2022-12-29T08:58:12;10.68;;;5.80;;
52922;SDS011;38796;42.702;23.306;2022-12-29T09:00:13;9.57;;;3.83;;
52922;SDS011;38796;42.702;23.306;2022-12-29T09:02:12;9.13;;;4.43;;
52922;SDS011;38796;42.702;23.306;2022-12-29T09:04:19;14.68;;;4.53;;
52922;SDS011;38796;42.702;23.306;2022-12-29T09:06:17;11.05;;;5.88;;
52922;SDS011;38796;42.702;23.306;2022-12-29T09:08:16;13.43;;;6.30;;
52922;SDS011;38796;42.702;23.306;2022-12-29T09:10:21;24.73;;;7.43;;
52922;SDS011;38796;42.702;23.306;2022-12-29T09:12:20;8.10;;;4.50;;
52922;SDS011;38796;42.702;23.306;2022-12-29T09:14:20;8.63;;;3.63;;
52922;SDS011;38796;42.702;23.306;2022-12-29T09:16:20;17.00;;;6.25;;
52922;SDS011;38796;42.702;23.306;2022-12-29T09:18:20;18.85;;;7.80;;
52922;SDS011;38796;42.702;23.306;2022-12-29T09:20:18;41.97;;;11.60;;
52922;SDS011;38796;42.702;23.306;2022-12-29T09:22:17;14.68;;;7.00;;
52922;SDS011;38796;42.702;23.306;2022-12-29T09:24:15;14.85;;;4.80;;
52922;SDS011;38796;42.702;23.306;2022-12-29T09:26:13;7.15;;;3.90;;
52922;SDS011;38796;42.702;23.306;2022-12-29T09:28:11;9.53;;;4.37;;
52922;SDS011;38796;42.702;23.306;2022-12-29T09:30:12;7.60;;;3.23;;
52922;SDS011;38796;42.702;23.306;2022-12-29T09:32:11;7.57;;;3.77;;
52922;SDS011;38796;42.702;23.306;2022-12-29T09:34:14;7.00;;;3.95;;
52922;SDS011;38796;42.702;23.306;2022-12-29T09:36:13;6.57;;;3.73;;
52922;SDS011;38796;42.702;23.306;2022-12-29T09:38:11;7.80;;;3.93;;
52922;SDS011;38796;42.702;23.306;2022-12-29T09:40:14;6.00;;;3.13;;
52922;SDS011;38796;42.702;23.306;2022-12-29T09:42:23;5.00;;;3.03;;
52922;SDS011;38796;42.702;23.306;2022-12-29T09:44:26;6.53;;;4.00;;
52922;SDS011;38796;42.702;23.306;2022-12-29T09:46:39;4.30;;;3.30;;
52922;SDS011;38796;42.702;23.306;2022-12-29T09:48:42;5.00;;;3.33;;
52922;SDS011;38796;42.702;23.306;2022-12-29T09:50:47;9.15;;;3.83;;
52922;SDS011;38796;42.702;23.306;2022-12-29T09:52:50;4.97;;;3.27;;
52922;SDS011;38796;42.702;23.306;2022-12-29T09:54:56;5.47;;;3.30;;
52922;SDS011;38796;42.702;23.306;2022-12-29T09:57:04;6.40;;;3.60;;
52922;SDS011;38796;42.702;23.306;2022-12-29T09:59:10;8.48;;;3.08;;
52922;SDS011;38796;42.702;23.306;2022-12-29T10:01:14;6.50;;;3.07;;
52922;SDS011;38796;42.702;23.306;2022-12-29T10:03:25;6.93;;;3.27;;
52922;SDS011;38796;42.702;23.306;2022-12-29T10:05:33;3.00;;;2.27;;
52922;SDS011;38796;42.702;23.306;2022-12-29T10:07:38;4.67;;;2.33;;
52922;SDS011;38796;42.702;23.306;2022-12-29T10:09:44;3.40;;;2.33;;
52922;SDS011;38796;42.702;23.306;2022-12-29T10:11:55;4.20;;;2.40;;
52922;SDS011;38796;42.702;23.306;2022-12-29T10:14:14;5.60;;;3.13;;
52922;SDS011;38796;42.702;23.306;2022-12-29T10:16:29;12.57;;;3.92;;
52922;SDS011;38796;42.702;23.306;2022-12-29T10:18:42;9.52;;;3.25;;
52922;SDS011;38796;42.702;23.306;2022-12-29T10:20:53;11.93;;;4.53;;
52922;SDS011;38796;42.702;23.306;2022-12-29T10:23:01;7.80;;;4.10;;
52922;SDS011;38796;42.702;23.306;2022-12-29T10:25:11;24.52;;;10.55;;
52922;SDS011;38796;42.702;23.306;2022-12-29T10:27:13;5.65;;;4.00;;
52922;SDS011;38796;42.702;23.306;2022-12-29T10:29:14;6.28;;;3.53;;
52922;SDS011;38796;42.702;23.306;2022-12-29T10:31:16;8.27;;;3.50;;
52922;SDS011;38796;42.702;23.306;2022-12-29T10:33:20;11.32;;;5.18;;
52922;SDS011;38796;42.702;23.306;2022-12-29T10:35:22;4.78;;;2.80;;
52922;SDS011;38796;42.702;23.306;2022-12-29T10:37:26;5.18;;;2.70;;
52922;SDS011;38796;42.702;23.306;2022-12-29T10:39:30;6.40;;;2.53;;
52922;SDS011;38796;42.702;23.306;2022-12-29T10:41:38;7.22;;;2.80;;
52922;SDS011;38796;42.702;23.306;2022-12-29T10:43:43;19.27;;;5.22;;
52922;SDS011;38796;42.702;23.306;2022-12-29T10:45:44;6.43;;;3.63;;
52922;SDS011;38796;42.702;23.306;2022-12-29T10:47:47;4.85;;;2.90;;
52922;SDS011;38796;42.702;23.306;2022-12-29T10:49:51;6.10;;;2.88;;
52922;SDS011;38796;42.702;23.306;2022-12-29T10:51:51;6.22;;;3.13;;
52922;SDS011;38796;42.702;23.306;2022-12-29T10:53:55;9.45;;;3.47;;
52922;SDS011;38796;42.702;23.306;2022-12-29T10:55:59;6.00;;;3.38;;
52922;SDS011;38796;42.702;23.306;2022-12-29T10:57:59;5.53;;;2.40;;
52922;SDS011;38796;42.702;23.306;2022-12-29T11:00:01;5.90;;;2.70;;
52922;SDS011;38796;42.702;23.306;2022-12-29T11:02:13;4.30;;;2.50;;
52922;SDS011;38796;42.702;23.306;2022-12-29T11:04:35;2.57;;;1.70;;
52922;SDS011;38796;42.702;23.306;2022-12-29T11:06:41;2.23;;;1.93;;
52922;SDS011;38796;42.702;23.306;2022-12-29T11:08:44;14.47;;;5.40;;
52922;SDS011;38796;42.702;23.306;2022-12-29T11:10:56;10.37;;;5.67;;
52922;SDS011;38796;42.702;23.306;2022-12-29T11:12:57;8.13;;;4.77;;
52922;SDS011;38796;42.702;23.306;2022-12-29T11:17:14;7.20;;;3.75;;
52922;SDS011;38796;42.702;23.306;2022-12-29T11:19:20;4.63;;;2.17;;
52922;SDS011;38796;42.702;23.306;2022-12-29T11:21:27;5.17;;;2.93;;
52922;SDS011;38796;42.702;23.306;2022-12-29T11:23:30;4.50;;;2.53;;
52922;SDS011;38796;42.702;23.306;2022-12-29T11:25:31;7.60;;;3.00;;
52922;SDS011;38796;42.702;23.306;2022-12-29T11:27:30;11.53;;;3.00;;
52922;SDS011;38796;42.702;23.306;2022-12-29T11:29:29;5.90;;;3.43;;
52922;SDS011;38796;42.702;23.306;2022-12-29T11:31:39;18.88;;;7.47;;
52922;SDS011;38796;42.702;23.306;2022-12-29T11:33:38;13.55;;;3.65;;
52922;SDS011;38796;42.702;23.306;2022-12-29T11:35:38;34.30;;;15.80;;
52922;SDS011;38796;42.702;23.306;2022-12-29T11:37:39;72.13;;;27.45;;
52922;SDS011;38796;42.702;23.306;2022-12-29T11:39:39;21.40;;;8.00;;
52922;SDS011;38796;42.702;23.306;2022-12-29T11:41:52;7.40;;;3.85;;
52922;SDS011;38796;42.702;23.306;2022-12-29T11:43:52;9.10;;;3.05;;
52922;SDS011;38796;42.702;23.306;2022-12-29T11:45:53;7.38;;;4.50;;
52922;SDS011;38796;42.702;23.306;2022-12-29T11:47:53;16.00;;;4.68;;
52922;SDS011;38796;42.702;23.306;2022-12-29T11:49:55;4.65;;;2.83;;
52922;SDS011;38796;42.702;23.306;2022-12-29T11:51:56;6.18;;;2.72;;
52922;SDS011;38796;42.702;23.306;2022-12-29T11:53:55;5.57;;;3.67;;
52922;SDS011;38796;42.702;23.306;2022-12-29T11:55:57;6.20;;;2.92;;
52922;SDS011;38796;42.702;23.306;2022-12-29T11:58:00;6.82;;;2.90;;
52922;SDS011;38796;42.702;23.306;2022-12-29T12:00:02;7.15;;;2.50;;
52922;SDS011;38796;42.702;23.306;2022-12-29T12:04:39;19.67;;;4.25;;
52922;SDS011;38796;42.702;23.306;2022-12-29T12:06:39;8.77;;;5.40;;
52922;SDS011;38796;42.702;23.306;2022-12-29T12:08:43;15.75;;;6.95;;
52922;SDS011;38796;42.702;23.306;2022-12-29T12:10:47;11.32;;;5.05;;
52922;SDS011;38796;42.702;23.306;2022-12-29T12:14:53;20.42;;;6.70;;
52922;SDS011;38796;42.702;23.306;2022-12-29T12:17:11;6.18;;;3.97;;
52922;SDS011;38796;42.702;23.306;2022-12-29T12:19:12;9.95;;;3.60;;
52922;SDS011;38796;42.702;23.306;2022-12-29T12:21:22;7.30;;;2.72;;
52922;SDS011;38796;42.702;23.306;2022-12-29T12:23:30;15.63;;;3.17;;
52922;SDS011;38796;42.702;23.306;2022-12-29T12:25:35;5.63;;;2.42;;
52922;SDS011;38796;42.702;23.306;2022-12-29T12:27:41;3.90;;;3.10;;
52922;SDS011;38796;42.702;23.306;2022-12-29T12:29:47;9.30;;;3.50;;
52922;SDS011;38796;42.702;23.306;2022-12-29T12:31:52;3.15;;;2.70;;
52922;SDS011;38796;42.702;23.306;2022-12-29T12:33:57;5.53;;;3.15;;
52922;SDS011;38796;42.702;23.306;2022-12-29T12:36:04;4.43;;;2.15;;
52922;SDS011;38796;42.702;23.306;2022-12-29T12:38:20;7.05;;;3.65;;
52922;SDS011;38796;42.702;23.306;2022-12-29T12:42:57;3.20;;;2.55;;
52922;SDS011;38796;42.702;23.306;2022-12-29T12:45:21;11.27;;;3.58;;
52922;SDS011;38796;42.702;23.306;2022-12-29T12:47:36;13.85;;;3.10;;
52922;SDS011;38796;42.702;23.306;2022-12-29T12:52:22;8.55;;;3.40;;
52922;SDS011;38796;42.702;23.306;2022-12-29T12:54:33;7.50;;;4.40;;
52922;SDS011;38796;42.702;23.306;2022-12-29T12:56:45;8.75;;;5.13;;
52922;SDS011;38796;42.702;23.306;2022-12-29T12:58:49;8.93;;;4.03;;
52922;SDS011;38796;42.702;23.306;2022-12-29T13:01:02;9.75;;;4.13;;
52922;SDS011;38796;42.702;23.306;2022-12-29T13:03:12;6.78;;;3.92;;
52922;SDS011;38796;42.702;23.306;2022-12-29T13:05:26;4.50;;;2.60;;
52922;SDS011;38796;42.702;23.306;2022-12-29T13:07:37;4.57;;;2.72;;
52922;SDS011;38796;42.702;23.306;2022-12-29T13:09:48;6.70;;;3.55;;
52922;SDS011;38796;42.702;23.306;2022-12-29T13:12:04;5.68;;;3.38;;
52922;SDS011;38796;42.702;23.306;2022-12-29T13:14:15;5.78;;;3.17;;
52922;SDS011;38796;42.702;23.306;2022-12-29T13:16:27;12.57;;;4.55;;
52922;SDS011;38796;42.702;23.306;2022-12-29T13:18:34;6.60;;;3.15;;
52922;SDS011;38796;42.702;23.306;2022-12-29T13:20:44;41.50;;;15.30;;
52922;SDS011;38796;42.702;23.306;2022-12-29T13:22:48;25.43;;;12.33;;
52922;SDS011;38796;42.702;23.306;2022-12-29T13:25:08;19.60;;;7.38;;
52922;SDS011;38796;42.702;23.306;2022-12-29T13:27:27;19.88;;;7.07;;
52922;SDS011;38796;42.702;23.306;2022-12-29T13:29:34;9.82;;;4.57;;
52922;SDS011;38796;42.702;23.306;2022-12-29T13:31:40;16.60;;;4.45;;
52922;SDS011;38796;42.702;23.306;2022-12-29T13:33:47;11.90;;;5.43;;
52922;SDS011;38796;42.702;23.306;2022-12-29T13:35:56;4.20;;;2.95;;
52922;SDS011;38796;42.702;23.306;2022-12-29T13:38:00;6.78;;;3.65;;
52922;SDS011;38796;42.702;23.306;2022-12-29T13:40:10;6.35;;;3.38;;
52922;SDS011;38796;42.702;23.306;2022-12-29T13:42:13;14.38;;;2.70;;
52922;SDS011;38796;42.702;23.306;2022-12-29T13:44:16;9.30;;;3.83;;
52922;SDS011;38796;42.702;23.306;2022-12-29T13:46:19;5.25;;;3.13;;
52922;SDS011;38796;42.702;23.306;2022-12-29T13:48:22;8.05;;;5.32;;
52922;SDS011;38796;42.702;23.306;2022-12-29T13:50:26;16.98;;;4.22;;
52922;SDS011;38796;42.702;23.306;2022-12-29T13:52:32;8.88;;;3.85;;
52922;SDS011;38796;42.702;23.306;2022-12-29T13:54:35;7.10;;;4.25;;
52922;SDS011;38796;42.702;23.306;2022-12-29T13:56:38;11.85;;;4.72;;
52922;SDS011;38796;42.702;23.306;2022-12-29T13:58:41;7.90;;;4.25;;
52922;SDS011;38796;42.702;23.306;2022-12-29T14:00:48;10.60;;;4.47;;
52922;SDS011;38796;42.702;23.306;2022-12-29T14:03:00;15.50;;;6.25;;
52922;SDS011;38796;42.702;23.306;2022-12-29T14:05:30;9.75;;;4.40;;
52922;SDS011;38796;42.702;23.306;2022-12-29T14:07:35;7.72;;;4.22;;
52922;SDS011;38796;42.702;23.306;2022-12-29T14:09:39;8.68;;;4.60;;
52922;SDS011;38796;42.702;23.306;2022-12-29T14:11:42;9.40;;;4.50;;
52922;SDS011;38796;42.702;23.306;2022-12-29T14:13:41;13.13;;;4.22;;
52922;SDS011;38796;42.702;23.306;2022-12-29T14:15:42;9.27;;;3.83;;
52922;SDS011;38796;42.702;23.306;2022-12-29T14:17:42;7.32;;;4.88;;
52922;SDS011;38796;42.702;23.306;2022-12-29T14:19:41;11.43;;;5.60;;
52922;SDS011;38796;42.702;23.306;2022-12-29T14:21:49;6.47;;;3.40;;
52922;SDS011;38796;42.702;23.306;2022-12-29T14:23:49;8.27;;;4.10;;
52922;SDS011;38796;42.702;23.306;2022-12-29T14:25:57;10.77;;;3.70;;
52922;SDS011;38796;42.702;23.306;2022-12-29T14:27:57;11.65;;;5.35;;
52922;SDS011;38796;42.702;23.306;2022-12-29T14:29:55;11.07;;;5.10;;
52922;SDS011;38796;42.702;23.306;2022-12-29T14:31:54;6.72;;;4.85;;
52922;SDS011;38796;42.702;23.306;2022-12-29T14:36:26;7.68;;;4.47;;
52922;SDS011;38796;42.702;23.306;2022-12-29T14:38:33;8.23;;;4.13;;
52922;SDS011;38796;42.702;23.306;2022-12-29T14:40:42;29.52;;;4.75;;
52922;SDS011;38796;42.702;23.306;2022-12-29T14:42:41;11.45;;;4.43;;
52922;SDS011;38796;42.702;23.306;2022-12-29T14:44:46;7.97;;;3.70;;
52922;SDS011;38796;42.702;23.306;2022-12-29T14:46:54;12.10;;;4.45;;
52922;SDS011;38796;42.702;23.306;2022-12-29T14:48:56;9.77;;;3.97;;
52922;SDS011;38796;42.702;23.306;2022-12-29T14:50:57;6.68;;;4.57;;
52922;SDS011;38796;42.702;23.306;2022-12-29T14:52:57;8.60;;;4.10;;
52922;SDS011;38796;42.702;23.306;2022-12-29T14:55:01;7.85;;;4.65;;
52922;SDS011;38796;42.702;23.306;2022-12-29T14:57:35;12.00;;;4.35;;
52922;SDS011;38796;42.702;23.306;2022-12-29T14:59:36;16.65;;;4.00;;
52922;SDS011;38796;42.702;23.306;2022-12-29T15:01:37;11.80;;;5.43;;
52922;SDS011;38796;42.702;23.306;2022-12-29T15:03:43;19.88;;;5.88;;
52922;SDS011;38796;42.702;23.306;2022-12-29T15:05:48;13.68;;;6.22;;
52922;SDS011;38796;42.702;23.306;2022-12-29T15:08:02;14.15;;;5.63;;
52922;SDS011;38796;42.702;23.306;2022-12-29T15:10:05;7.82;;;4.55;;
52922;SDS011;38796;42.702;23.306;2022-12-29T15:12:12;8.38;;;4.80;;
52922;SDS011;38796;42.702;23.306;2022-12-29T15:14:32;10.45;;;4.70;;
52922;SDS011;38796;42.702;23.306;2022-12-29T15:16:33;8.02;;;4.63;;
52922;SDS011;38796;42.702;23.306;2022-12-29T15:18:35;7.80;;;4.10;;
52922;SDS011;38796;42.702;23.306;2022-12-29T15:20:38;40.17;;;12.98;;
52922;SDS011;38796;42.702;23.306;2022-12-29T15:22:37;19.40;;;9.02;;
52922;SDS011;38796;42.702;23.306;2022-12-29T15:24:40;15.15;;;7.55;;
52922;SDS011;38796;42.702;23.306;2022-12-29T15:26:42;12.90;;;4.45;;
52922;SDS011;38796;42.702;23.306;2022-12-29T15:28:44;12.27;;;5.75;;
52922;SDS011;38796;42.702;23.306;2022-12-29T15:30:50;12.23;;;5.75;;
52922;SDS011;38796;42.702;23.306;2022-12-29T15:32:50;23.75;;;9.77;;
52922;SDS011;38796;42.702;23.306;2022-12-29T15:34:50;12.68;;;6.95;;
52922;SDS011;38796;42.702;23.306;2022-12-29T15:36:50;15.50;;;7.25;;
52922;SDS011;38796;42.702;23.306;2022-12-29T15:38:49;42.30;;;17.90;;
52922;SDS011;38796;42.702;23.306;2022-12-29T15:40:48;20.17;;;11.32;;
52922;SDS011;38796;42.702;23.306;2022-12-29T15:42:54;20.02;;;9.50;;
52922;SDS011;38796;42.702;23.306;2022-12-29T15:45:05;30.23;;;10.50;;
52922;SDS011;38796;42.702;23.306;2022-12-29T15:47:11;18.77;;;8.95;;
52922;SDS011;38796;42.702;23.306;2022-12-29T15:49:14;15.98;;;8.63;;
52922;SDS011;38796;42.702;23.306;2022-12-29T15:51:17;21.17;;;9.60;;
52922;SDS011;38796;42.702;23.306;2022-12-29T15:53:18;25.63;;;9.63;;
52922;SDS011;38796;42.702;23.306;2022-12-29T15:55:21;24.67;;;9.23;;
52922;SDS011;38796;42.702;23.306;2022-12-29T15:57:26;14.18;;;6.85;;
52922;SDS011;38796;42.702;23.306;2022-12-29T15:59:30;17.20;;;8.05;;
52922;SDS011;38796;42.702;23.306;2022-12-29T16:01:30;18.33;;;8.45;;
52922;SDS011;38796;42.702;23.306;2022-12-29T16:03:32;13.68;;;6.82;;
52922;SDS011;38796;42.702;23.306;2022-12-29T16:05:32;22.73;;;8.05;;
52922;SDS011;38796;42.702;23.306;2022-12-29T16:07:32;27.27;;;9.32;;
52922;SDS011;38796;42.702;23.306;2022-12-29T16:09:42;23.80;;;10.38;;
52922;SDS011;38796;42.702;23.306;2022-12-29T16:11:42;22.75;;;8.20;;
52922;SDS011;38796;42.702;23.306;2022-12-29T16:13:42;12.10;;;7.22;;
52922;SDS011;38796;42.702;23.306;2022-12-29T16:15:45;24.30;;;6.85;;
52922;SDS011;38796;42.702;23.306;2022-12-29T16:17:46;10.55;;;5.93;;
52922;SDS011;38796;42.702;23.306;2022-12-29T16:19:48;18.02;;;7.18;;
52922;SDS011;38796;42.702;23.306;2022-12-29T16:21:48;27.65;;;10.52;;
52922;SDS011;38796;42.702;23.306;2022-12-29T16:23:47;28.67;;;11.15;;
52922;SDS011;38796;42.702;23.306;2022-12-29T16:25:50;28.33;;;9.20;;
52922;SDS011;38796;42.702;23.306;2022-12-29T16:27:51;23.08;;;12.55;;
52922;SDS011;38796;42.702;23.306;2022-12-29T16:29:51;27.95;;;13.95;;
52922;SDS011;38796;42.702;23.306;2022-12-29T16:31:54;23.20;;;10.82;;
52922;SDS011;38796;42.702;23.306;2022-12-29T16:33:57;28.08;;;11.27;;
52922;SDS011;38796;42.702;23.306;2022-12-29T16:35:55;26.40;;;9.93;;
52922;SDS011;38796;42.702;23.306;2022-12-29T16:38:06;15.05;;;9.68;;
52922;SDS011;38796;42.702;23.306;2022-12-29T16:40:23;22.15;;;7.55;;
52922;SDS011;38796;42.702;23.306;2022-12-29T16:42:33;16.50;;;9.27;;
52922;SDS011;38796;42.702;23.306;2022-12-29T16:44:32;21.85;;;9.20;;
52922;SDS011;38796;42.702;23.306;2022-12-29T16:46:31;19.65;;;8.65;;
52922;SDS011;38796;42.702;23.306;2022-12-29T16:48:31;30.17;;;17.02;;
52922;SDS011;38796;42.702;23.306;2022-12-29T16:50:32;37.20;;;16.30;;
52922;SDS011;38796;42.702;23.306;2022-12-29T16:52:33;29.27;;;10.52;;
52922;SDS011;38796;42.702;23.306;2022-12-29T16:54:32;22.90;;;8.82;;
52922;SDS011;38796;42.702;23.306;2022-12-29T16:56:33;27.70;;;12.57;;
52922;SDS011;38796;42.702;23.306;2022-12-29T16:58:33;28.60;;;13.77;;
52922;SDS011;38796;42.702;23.306;2022-12-29T17:00:33;36.22;;;12.75;;
52922;SDS011;38796;42.702;23.306;2022-12-29T17:02:33;28.05;;;13.57;;
52922;SDS011;38796;42.702;23.306;2022-12-29T17:04:42;33.95;;;13.52;;
52922;SDS011;38796;42.702;23.306;2022-12-29T17:06:44;39.50;;;17.02;;
52922;SDS011;38796;42.702;23.306;2022-12-29T17:08:43;30.10;;;13.73;;
52922;SDS011;38796;42.702;23.306;2022-12-29T17:10:42;36.67;;;14.23;;
52922;SDS011;38796;42.702;23.306;2022-12-29T17:12:58;49.25;;;18.65;;
52922;SDS011;38796;42.702;23.306;2022-12-29T17:14:56;30.70;;;13.15;;
52922;SDS011;38796;42.702;23.306;2022-12-29T17:16:56;38.00;;;14.90;;
52922;SDS011;38796;42.702;23.306;2022-12-29T17:18:56;54.53;;;22.65;;
52922;SDS011;38796;42.702;23.306;2022-12-29T17:20:56;74.45;;;29.95;;
52922;SDS011;38796;42.702;23.306;2022-12-29T17:22:55;42.25;;;15.52;;
52922;SDS011;38796;42.702;23.306;2022-12-29T17:24:59;29.42;;;12.85;;
52922;SDS011;38796;42.702;23.306;2022-12-29T17:26:59;24.58;;;10.70;;
52922;SDS011;38796;42.702;23.306;2022-12-29T17:28:57;24.23;;;12.25;;
52922;SDS011;38796;42.702;23.306;2022-12-29T17:30:57;30.45;;;12.38;;
52922;SDS011;38796;42.702;23.306;2022-12-29T17:32:58;23.20;;;10.75;;
52922;SDS011;38796;42.702;23.306;2022-12-29T17:35:01;22.58;;;11.00;;
52922;SDS011;38796;42.702;23.306;2022-12-29T17:37:00;22.52;;;11.43;;
52922;SDS011;38796;42.702;23.306;2022-12-29T17:38:59;21.35;;;11.13;;
52922;SDS011;38796;42.702;23.306;2022-12-29T17:40:58;20.58;;;11.50;;
52922;SDS011;38796;42.702;23.306;2022-12-29T17:42:57;22.27;;;12.10;;
52922;SDS011;38796;42.702;23.306;2022-12-29T17:44:56;24.23;;;11.05;;
52922;SDS011;38796;42.702;23.306;2022-12-29T17:46:54;23.30;;;12.13;;
52922;SDS011;38796;42.702;23.306;2022-12-29T17:48:53;23.40;;;11.50;;
52922;SDS011;38796;42.702;23.306;2022-12-29T17:50:51;24.77;;;10.88;;
52922;SDS011;38796;42.702;23.306;2022-12-29T17:52:53;29.73;;;12.55;;
52922;SDS011;38796;42.702;23.306;2022-12-29T17:54:56;26.23;;;11.55;;
52922;SDS011;38796;42.702;23.306;2022-12-29T17:56:56;24.33;;;11.23;;
52922;SDS011;38796;42.702;23.306;2022-12-29T17:58:55;26.98;;;10.80;;
52922;SDS011;38796;42.702;23.306;2022-12-29T18:00:54;21.05;;;10.38;;
52922;SDS011;38796;42.702;23.306;2022-12-29T18:02:54;29.38;;;12.35;;
52922;SDS011;38796;42.702;23.306;2022-12-29T18:04:52;28.55;;;11.40;;
52922;SDS011;38796;42.702;23.306;2022-12-29T18:06:51;33.38;;;13.43;;
52922;SDS011;38796;42.702;23.306;2022-12-29T18:08:50;29.48;;;15.05;;
52922;SDS011;38796;42.702;23.306;2022-12-29T18:10:49;32.25;;;17.48;;
52922;SDS011;38796;42.702;23.306;2022-12-29T18:12:49;26.45;;;13.30;;
52922;SDS011;38796;42.702;23.306;2022-12-29T18:14:49;44.40;;;19.73;;
52922;SDS011;38796;42.702;23.306;2022-12-29T18:16:48;33.40;;;15.35;;
52922;SDS011;38796;42.702;23.306;2022-12-29T18:18:46;29.20;;;16.10;;
52922;SDS011;38796;42.702;23.306;2022-12-29T18:20:45;32.45;;;13.85;;
52922;SDS011;38796;42.702;23.306;2022-12-29T18:22:44;28.75;;;13.93;;
52922;SDS011;38796;42.702;23.306;2022-12-29T18:24:44;44.95;;;18.20;;
52922;SDS011;38796;42.702;23.306;2022-12-29T18:26:42;35.30;;;16.20;;
52922;SDS011;38796;42.702;23.306;2022-12-29T18:28:40;36.53;;;16.48;;
52922;SDS011;38796;42.702;23.306;2022-12-29T18:30:40;35.83;;;17.65;;
52922;SDS011;38796;42.702;23.306;2022-12-29T18:32:38;34.63;;;14.40;;
52922;SDS011;38796;42.702;23.306;2022-12-29T18:34:36;32.67;;;16.15;;
52922;SDS011;38796;42.702;23.306;2022-12-29T18:36:35;33.50;;;15.25;;
52922;SDS011;38796;42.702;23.306;2022-12-29T18:38:33;48.83;;;18.08;;
52922;SDS011;38796;42.702;23.306;2022-12-29T18:40:33;33.95;;;15.45;;
52922;SDS011;38796;42.702;23.306;2022-12-29T18:42:32;36.22;;;15.95;;
52922;SDS011;38796;42.702;23.306;2022-12-29T18:44:30;32.58;;;15.27;;
52922;SDS011;38796;42.702;23.306;2022-12-29T18:46:29;33.15;;;15.68;;
52922;SDS011;38796;42.702;23.306;2022-12-29T18:48:27;32.88;;;14.98;;
52922;SDS011;38796;42.702;23.306;2022-12-29T18:50:25;22.63;;;15.00;;
52922;SDS011;38796;42.702;23.306;2022-12-29T18:52:24;38.72;;;16.60;;
52922;SDS011;38796;42.702;23.306;2022-12-29T18:54:24;29.75;;;13.85;;
52922;SDS011;38796;42.702;23.306;2022-12-29T18:56:27;37.20;;;14.90;;
52922;SDS011;38796;42.702;23.306;2022-12-29T18:58:25;35.25;;;16.35;;
52922;SDS011;38796;42.702;23.306;2022-12-29T19:00:29;35.05;;;15.63;;
52922;SDS011;38796;42.702;23.306;2022-12-29T19:02:27;31.55;;;17.25;;
52922;SDS011;38796;42.702;23.306;2022-12-29T19:04:28;45.88;;;20.98;;
52922;SDS011;38796;42.702;23.306;2022-12-29T19:06:26;41.33;;;18.48;;
52922;SDS011;38796;42.702;23.306;2022-12-29T19:08:24;37.00;;;18.02;;
52922;SDS011;38796;42.702;23.306;2022-12-29T19:10:23;43.83;;;14.52;;
52922;SDS011;38796;42.702;23.306;2022-12-29T19:12:23;30.58;;;15.48;;
52922;SDS011;38796;42.702;23.306;2022-12-29T19:14:24;31.35;;;17.35;;
52922;SDS011;38796;42.702;23.306;2022-12-29T19:16:22;39.65;;;17.77;;
52922;SDS011;38796;42.702;23.306;2022-12-29T19:18:23;35.42;;;15.07;;
52922;SDS011;38796;42.702;23.306;2022-12-29T19:20:41;36.28;;;15.77;;